Terminal Aerodrome Forecast
Issued by NWS

Home | Current Version | Previous Version | Text Only | Print | Product List | Glossary On
Versions: 1 2 3 4 5 6 7 8 9 10 11 12 13 14 15 16
153
FTUS44 KLZK 260707 AAA
TAFHOT
TAF AMD
KHOT 260707Z 2607/2706 32004KT P6SM VCSH BKN120
      TEMPO 2607/2611 -SHRA SCT080 BKN100
     FM261300 12005KT P6SM BKN100 BKN250
     FM262100 11005KT P6SM SKC=

USA.gov is the U.S. government's official web portal to all federal, state and local government web resources and services.